Time;durP1;ratioP1;P1;durP2;ratioP2;P2;SDS_P1;SDS_P2;PMS_P1;PMS_P2;Temp;Humidity;BMP_temperature;BMP_pressure;BME280_temperature;BME280_humidity;BME280_pressure;Samples;Min_cycle;Max_cycle;Signal;HPM_P1;HPM_P2
2023/09/27 00:03:17;;;;;;;8.60;7.82;;;;;;;16.77;100.00;101929.59;6078962;29;20261;-72
2023/09/27 00:06:39;;;;;;;8.13;7.43;;;;;;;16.85;100.00;101920.72;6073309;29;20229;-72
2023/09/27 00:10:01;;;;;;;6.70;6.18;;;;;;;16.78;100.00;101922.31;6077770;29;20228;-73
2023/09/27 00:13:22;;;;;;;7.50;6.85;;;;;;;16.48;100.00;101928.84;6079489;29;20233;-72
2023/09/27 00:16:43;;;;;;;7.80;6.82;;;;;;;16.46;100.00;101935.44;6074553;29;20240;-72
2023/09/27 00:20:05;;;;;;;8.00;7.30;;;;;;;16.42;100.00;101953.06;6077077;29;20251;-72
2023/09/27 00:23:28;;;;;;;8.43;7.65;;;;;;;16.43;100.00;101941.19;6080733;29;20662;-72
2023/09/27 00:26:49;;;;;;;7.68;7.05;;;;;;;16.55;100.00;101951.78;6076320;29;22118;-73
2023/09/27 00:30:13;;;;;;;7.50;6.72;;;;;;;16.63;100.00;101948.31;6079617;29;20232;-72
2023/09/27 00:33:34;;;;;;;6.40;5.80;;;;;;;16.62;100.00;101936.59;6060821;29;20280;-72
2023/09/27 00:36:55;;;;;;;7.90;7.22;;;;;;;16.62;100.00;101938.44;6080863;29;20256;-72
2023/09/27 00:40:21;;;;;;;8.75;7.93;;;;;;;16.45;100.00;101956.38;6066809;29;20726;-72
2023/09/27 00:43:42;;;;;;;8.10;7.30;;;;;;;16.48;100.00;101945.16;6074426;29;20240;-73
2023/09/27 00:47:05;;;;;;;9.35;7.30;;;;;;;16.50;100.00;101923.31;6046560;29;20232;-72
2023/09/27 00:50:25;;;;;;;9.40;6.97;;;;;;;16.40;100.00;101942.34;6065826;29;20274;-72
2023/09/27 00:53:50;;;;;;;8.20;7.50;;;;;;;16.24;100.00;101950.25;6060311;29;20517;-73
2023/09/27 00:57:13;;;;;;;7.43;6.72;;;;;;;16.20;100.00;101932.50;6075660;29;20332;-73
2023/09/27 01:00:34;;;;;;;8.85;8.13;;;;;;;16.06;100.00;101932.13;6078582;29;20236;-72
2023/09/27 01:03:55;;;;;;;8.90;7.43;;;;;;;16.09;100.00;101937.25;6071047;29;20266;-72
2023/09/27 01:07:16;;;;;;;8.30;7.60;;;;;;;16.13;100.00;101931.38;6075876;29;20237;-71
2023/09/27 01:10:38;;;;;;;10.00;9.00;;;;;;;16.02;100.00;101935.09;6072609;29;20236;-71
2023/09/27 01:14:00;;;;;;;10.07;7.53;;;;;;;15.99;100.00;101929.97;6075668;29;20232;-71
2023/09/27 01:17:21;;;;;;;7.75;7.05;;;;;;;15.87;100.00;101930.28;6080351;29;20228;-71
2023/09/27 01:20:42;;;;;;;8.68;7.88;;;;;;;15.82;100.00;101927.13;6066413;29;21126;-71
2023/09/27 01:24:06;;;;;;;8.47;7.70;;;;;;;15.83;100.00;101926.97;6071711;29;20240;-72
2023/09/27 01:27:27;;;;;;;8.77;8.05;;;;;;;15.93;100.00;101927.84;6078111;29;20504;-72
2023/09/27 01:30:48;;;;;;;8.93;8.13;;;;;;;15.90;100.00;101932.69;6077487;29;20228;-73
2023/09/27 01:34:09;;;;;;;8.90;8.00;;;;;;;15.89;100.00;101934.56;6076162;29;20558;-72
2023/09/27 01:37:32;;;;;;;8.95;7.90;;;;;;;15.80;100.00;101929.13;6082840;29;20244;-72
2023/09/27 01:40:55;;;;;;;8.52;7.68;;;;;;;15.86;100.00;101928.53;6077581;29;20239;-72
2023/09/27 01:44:16;;;;;;;8.77;8.07;;;;;;;15.89;100.00;101931.00;6079598;29;20237;-71
2023/09/27 01:47:37;;;;;;;12.63;8.45;;;;;;;15.85;100.00;101916.81;6081647;29;20236;-72
2023/09/27 01:50:58;;;;;;;9.98;8.95;;;;;;;15.85;100.00;101897.75;6080810;29;20228;-73
2023/09/27 01:54:19;;;;;;;8.25;7.45;;;;;;;15.83;100.00;101905.22;6065434;29;20241;-72
2023/09/27 01:57:41;;;;;;;9.00;8.10;;;;;;;15.95;100.00;101922.25;6077826;29;20563;-72
2023/09/27 02:01:03;;;;;;;12.50;7.93;;;;;;;15.91;100.00;101921.69;6061394;29;20634;-71
2023/09/27 02:04:24;;;;;;;8.53;7.80;;;;;;;15.83;100.00;101915.25;6078082;29;20236;-72
2023/09/27 02:07:45;;;;;;;8.73;7.93;;;;;;;15.82;100.00;101914.38;6060738;29;20232;-72
2023/09/27 02:11:06;;;;;;;8.87;8.07;;;;;;;15.67;100.00;101913.09;6087467;29;20539;-71
2023/09/27 02:14:28;;;;;;;9.03;8.33;;;;;;;15.73;100.00;101923.41;6077532;29;20606;-72
2023/09/27 02:17:49;;;;;;;9.27;8.17;;;;;;;15.74;100.00;101927.00;6068522;29;20240;-72
2023/09/27 02:21:10;;;;;;;8.23;7.27;;;;;;;15.75;100.00;101931.44;6076406;29;20229;-72
2023/09/27 02:24:31;;;;;;;9.33;8.10;;;;;;;15.67;100.00;101932.13;6077810;29;20240;-72
2023/09/27 02:27:52;;;;;;;8.77;7.97;;;;;;;15.69;100.00;101946.44;6081938;29;20236;-72
2023/09/27 02:31:14;;;;;;;10.27;7.97;;;;;;;15.71;100.00;101946.28;6073127;29;20565;-73
2023/09/27 02:34:35;;;;;;;9.17;8.27;;;;;;;15.47;100.00;101948.56;6079602;29;20232;-72
2023/09/27 02:37:57;;;;;;;8.87;8.10;;;;;;;15.37;100.00;101956.69;6081756;29;20237;-72
2023/09/27 02:41:18;;;;;;;8.00;7.33;;;;;;;15.45;100.00;101962.31;6070558;29;20236;-73
2023/09/27 02:44:39;;;;;;;8.73;7.93;;;;;;;15.30;100.00;101957.38;6065505;29;20240;-71
2023/09/27 02:48:02;;;;;;;11.17;8.53;;;;;;;15.28;100.00;101946.66;6079259;29;20236;-72
2023/09/27 02:51:23;;;;;;;9.67;8.87;;;;;;;15.32;100.00;101952.66;6084085;29;20233;-72
2023/09/27 02:54:45;;;;;;;9.87;8.97;;;;;;;15.36;100.00;101946.81;6076180;29;20236;-72
2023/09/27 02:58:06;;;;;;;9.27;8.47;;;;;;;15.26;100.00;101948.66;6081532;29;20505;-72
2023/09/27 03:01:28;;;;;;;10.40;9.10;;;;;;;15.25;100.00;101949.66;6069683;29;20240;-72
2023/09/27 03:04:50;;;;;;;9.40;8.50;;;;;;;15.27;100.00;101952.25;6074996;29;20314;-73
2023/09/27 03:08:12;;;;;;;8.70;8.00;;;;;;;15.15;100.00;101959.63;6077413;29;20233;-72
2023/09/27 03:11:33;;;;;;;10.10;9.03;;;;;;;15.21;100.00;101961.78;6077147;29;20228;-72
2023/09/27 03:14:54;;;;;;;8.40;7.60;;;;;;;15.17;100.00;101963.94;6061048;29;20255;-72
2023/09/27 03:18:15;;;;;;;10.80;9.80;;;;;;;15.15;100.00;101967.78;6066276;29;20248;-73
2023/09/27 03:21:38;;;;;;;9.90;9.03;;;;;;;15.15;100.00;101963.22;6077819;29;20233;-72
2023/09/27 03:24:59;;;;;;;9.70;8.77;;;;;;;15.10;100.00;101967.38;6076032;29;20511;-72
2023/09/27 03:28:20;;;;;;;9.93;8.93;;;;;;;15.17;100.00;101960.34;6078870;29;20241;-72
2023/09/27 03:31:41;;;;;;;9.47;8.47;;;;;;;15.18;100.00;101972.94;6079366;29;20232;-71
2023/09/27 03:35:02;;;;;;;10.03;9.13;;;;;;;15.21;100.00;101975.38;6077400;29;20240;-72
2023/09/27 03:38:25;;;;;;;9.80;8.83;;;;;;;15.17;100.00;101977.53;6064262;29;20235;-72
2023/09/27 03:41:46;;;;;;;10.00;8.83;;;;;;;15.10;100.00;101970.06;6075391;29;20324;-72
2023/09/27 03:45:08;;;;;;;9.07;8.37;;;;;;;15.14;100.00;101966.09;6075758;29;20634;-72
2023/09/27 03:48:29;;;;;;;14.33;13.03;;;;;;;15.09;100.00;101966.50;6062910;29;20639;-72
2023/09/27 03:51:51;;;;;;;10.03;9.13;;;;;;;15.07;100.00;101967.63;6075466;29;20237;-72
2023/09/27 03:55:13;;;;;;;8.87;8.07;;;;;;;15.14;100.00;101964.19;6065455;29;20233;-71
2023/09/27 03:58:34;;;;;;;10.47;9.47;;;;;;;15.12;100.00;101968.06;6067903;29;20244;-71
2023/09/27 04:01:55;;;;;;;8.40;7.70;;;;;;;15.11;100.00;101977.22;6072300;29;20240;-71
2023/09/27 04:05:18;;;;;;;9.93;9.07;;;;;;;15.06;100.00;101979.50;6074997;29;20263;-72
2023/09/27 04:08:39;;;;;;;9.27;8.47;;;;;;;15.00;100.00;101969.16;6081317;29;20236;-71
2023/09/27 04:12:01;;;;;;;9.43;8.63;;;;;;;15.00;100.00;101966.44;6076935;29;20228;-71
2023/09/27 04:15:22;;;;;;;9.97;9.03;;;;;;;15.03;100.00;101961.63;6077417;29;20304;-71
2023/09/27 04:18:43;;;;;;;11.77;9.57;;;;;;;15.03;100.00;101969.78;6067312;29;22458;-71
2023/09/27 04:22:04;;;;;;;10.53;9.40;;;;;;;14.98;100.00;101973.88;6082066;29;20240;-71
2023/09/27 04:25:25;;;;;;;12.73;11.40;;;;;;;14.90;100.00;101980.00;6078122;29;20299;-72
2023/09/27 04:28:48;;;;;;;12.37;9.63;;;;;;;14.84;100.00;101982.41;6077837;29;20237;-71
2023/09/27 04:32:09;;;;;;;10.33;9.20;;;;;;;14.80;100.00;101984.53;6079325;29;20240;-72
2023/09/27 04:35:30;;;;;;;10.63;8.90;;;;;;;14.79;100.00;101984.69;6074353;29;20358;-72
2023/09/27 04:38:51;;;;;;;11.47;9.87;;;;;;;14.78;100.00;101970.25;6076855;29;20336;-72
2023/09/27 04:42:12;;;;;;;9.63;8.73;;;;;;;14.77;100.00;101959.53;6077642;29;20229;-71
2023/09/27 04:45:34;;;;;;;9.40;8.60;;;;;;;14.83;100.00;101967.97;6072809;29;20240;-71
2023/09/27 04:48:55;;;;;;;11.90;10.80;;;;;;;14.86;100.00;101975.84;6053247;29;20228;-71
2023/09/27 04:52:16;;;;;;;9.70;8.70;;;;;;;14.79;100.00;101969.22;6079316;29;20261;-71
2023/09/27 04:55:37;;;;;;;16.87;8.20;;;;;;;14.76;100.00;101968.66;6059952;29;20271;-71
2023/09/27 04:59:01;;;;;;;10.13;8.13;;;;;;;14.74;100.00;101966.09;6073441;29;20693;-70
2023/09/27 05:02:24;;;;;;;9.63;8.73;;;;;;;14.72;100.00;101961.78;6066321;29;20323;-71
2023/09/27 05:05:45;;;;;;;8.20;7.40;;;;;;;14.67;100.00;101969.47;6070942;29;20232;-71
2023/09/27 05:09:06;;;;;;;11.07;9.97;;;;;;;14.58;100.00;101965.69;6077346;29;20233;-71
2023/09/27 05:12:27;;;;;;;9.67;8.70;;;;;;;14.58;100.00;101975.72;6071975;29;20236;-71
2023/09/27 05:15:48;;;;;;;9.67;8.67;;;;;;;14.55;100.00;101986.81;6076295;29;20573;-71
2023/09/27 05:19:10;;;;;;;11.50;9.20;;;;;;;14.63;100.00;101978.88;6075862;29;20507;-71
2023/09/27 05:22:31;;;;;;;16.17;8.63;;;;;;;14.55;100.00;101990.41;6078203;29;20345;-70
2023/09/27 05:25:52;;;;;;;11.67;8.57;;;;;;;14.53;100.00;101997.81;6074840;29;20805;-70
2023/09/27 05:29:13;;;;;;;10.67;8.73;;;;;;;14.66;100.00;101998.47;6064796;29;20248;-71
2023/09/27 05:32:34;;;;;;;10.73;9.63;;;;;;;14.55;100.00;101997.69;6069548;29;20233;-70
2023/09/27 05:35:57;;;;;;;9.57;8.10;;;;;;;14.43;100.00;102000.47;6074682;29;20260;-71
2023/09/27 05:39:18;;;;;;;8.90;8.07;;;;;;;14.40;100.00;101999.88;6062814;29;20913;-71
2023/09/27 05:42:39;;;;;;;10.20;9.20;;;;;;;14.29;100.00;102002.66;6080640;29;20554;-71
2023/09/27 05:46:00;;;;;;;13.87;10.43;;;;;;;14.40;100.00;102000.75;6078299;29;20537;-72
2023/09/27 05:49:21;;;;;;;11.63;10.53;;;;;;;14.34;100.00;101995.84;6077248;29;20244;-71
2023/09/27 05:52:46;;;;;;;10.37;8.50;;;;;;;14.33;100.00;102004.13;6071746;29;20236;-70
2023/09/27 05:56:07;;;;;;;9.20;8.30;;;;;;;14.30;100.00;101986.28;6064792;29;20232;-71
2023/09/27 05:59:28;;;;;;;9.57;8.67;;;;;;;14.53;100.00;101986.09;6070294;29;21076;-71
2023/09/27 06:02:49;;;;;;;10.17;9.20;;;;;;;14.37;100.00;102001.00;6072383;29;20292;-70
2023/09/27 06:06:10;;;;;;;10.73;8.50;;;;;;;14.37;100.00;102003.72;6066641;29;20229;-71
2023/09/27 06:09:32;;;;;;;9.07;8.17;;;;;;;14.44;100.00;101987.75;6075997;29;20263;-71
2023/09/27 06:12:53;;;;;;;9.17;8.37;;;;;;;14.45;100.00;101985.91;6068965;29;20241;-71
2023/09/27 06:16:16;;;;;;;8.33;7.53;;;;;;;14.43;100.00;101992.31;6075988;29;20566;-71
2023/09/27 06:19:37;;;;;;;9.23;8.50;;;;;;;14.46;100.00;101979.50;6081391;29;20745;-71
2023/09/27 06:23:03;;;;;;;9.70;8.87;;;;;;;14.49;100.00;101988.25;6081992;29;20471;-71
2023/09/27 06:26:25;;;;;;;14.97;9.03;;;;;;;14.64;100.00;101984.19;6078842;29;20252;-72
2023/09/27 06:29:46;;;;;;;19.10;8.00;;;;;;;14.59;100.00;101989.16;6080347;29;20229;-72
2023/09/27 06:33:08;;;;;;;9.00;7.80;;;;;;;14.77;100.00;101992.09;6079155;29;20239;-71
2023/09/27 06:36:34;;;;;;;11.40;7.20;;;;;;;14.89;100.00;101997.31;6083976;29;20236;-71
2023/09/27 06:39:55;;;;;;;10.33;7.57;;;;;;;14.88;100.00;102001.00;6082251;29;20268;-71
2023/09/27 06:43:17;;;;;;;10.17;8.53;;;;;;;14.87;100.00;102015.56;6075912;29;20323;-71
2023/09/27 06:46:38;;;;;;;10.43;8.40;;;;;;;15.03;100.00;102001.50;6079494;29;20240;-71
2023/09/27 06:49:59;;;;;;;6.97;6.37;;;;;;;15.16;100.00;102015.69;6080470;29;20232;-71
2023/09/27 06:53:20;;;;;;;9.13;8.00;;;;;;;15.26;100.00;102000.28;6078481;29;20675;-71
2023/09/27 06:56:42;;;;;;;8.63;7.90;;;;;;;15.41;100.00;102004.34;6077610;29;20221;-72
2023/09/27 07:00:09;;;;;;;8.70;7.77;;;;;;;15.56;100.00;102002.94;6081371;29;20244;-70
2023/09/27 07:03:33;;;;;;;8.87;7.97;;;;;;;15.75;100.00;102011.13;6063905;29;20754;-70
2023/09/27 07:06:54;;;;;;;8.00;7.30;;;;;;;15.82;100.00;102016.84;6066525;29;20375;-71
2023/09/27 07:10:15;;;;;;;8.60;6.63;;;;;;;15.98;100.00;102028.88;6069091;29;20232;-71
2023/09/27 07:13:37;;;;;;;8.47;7.77;;;;;;;16.19;100.00;102027.91;6070549;29;21687;-70
2023/09/27 07:16:59;;;;;;;8.93;8.13;;;;;;;15.82;100.00;102035.91;6079212;29;20536;-72
2023/09/27 07:20:24;;;;;;;9.93;7.87;;;;;;;15.99;100.00;102038.78;6074559;29;20220;-71
2023/09/27 07:23:44;;;;;;;9.33;8.47;;;;;;;16.39;100.00;102041.34;6075896;29;20251;-71
2023/09/27 07:27:05;;;;;;;9.10;7.63;;;;;;;16.47;100.00;102048.78;6078142;29;20229;-71
2023/09/27 07:30:26;;;;;;;9.00;8.20;;;;;;;16.56;100.00;102048.78;6083138;29;20236;-71
2023/09/27 07:33:52;;;;;;;8.43;7.63;;;;;;;16.42;100.00;102051.06;6078297;29;20315;-71
2023/09/27 07:37:14;;;;;;;8.82;7.88;;;;;;;16.76;99.73;102052.31;6077233;29;20351;-71
2023/09/27 07:40:35;;;;;;;9.60;8.73;;;;;;;16.87;99.06;102051.28;6072515;29;20241;-71
2023/09/27 07:43:56;;;;;;;8.80;8.00;;;;;;;16.96;98.20;102044.97;6065151;29;20228;-71
2023/09/27 07:47:19;;;;;;;9.47;8.63;;;;;;;17.12;97.58;102051.50;6075981;29;20316;-70
2023/09/27 07:50:41;;;;;;;10.80;9.68;;;;;;;17.09;97.56;102059.09;6074636;29;20326;-71
2023/09/27 07:54:03;;;;;;;8.43;7.50;;;;;;;17.02;96.88;102061.56;6062051;29;20232;-71
2023/09/27 07:57:24;;;;;;;8.73;7.80;;;;;;;17.31;96.30;102061.47;6070907;29;20607;-72
2023/09/27 08:00:45;;;;;;;9.05;8.13;;;;;;;17.06;96.44;102070.31;6043928;29;20246;-71
2023/09/27 08:04:07;;;;;;;7.78;7.07;;;;;;;17.40;96.01;102074.16;6055441;29;20240;-71
2023/09/27 08:07:29;;;;;;;8.00;7.20;;;;;;;17.81;94.65;102081.88;6069744;29;20240;-71
2023/09/27 08:10:51;;;;;;;8.48;7.78;;;;;;;17.90;93.66;102080.09;6071079;29;20236;-71
2023/09/27 08:14:15;;;;;;;8.73;7.80;;;;;;;18.07;92.85;102084.69;6070854;29;20323;-71
2023/09/27 08:17:36;;;;;;;8.15;7.15;;;;;;;18.19;92.06;102097.97;6072595;29;20232;-71
2023/09/27 08:20:57;;;;;;;9.27;8.43;;;;;;;18.29;91.37;102097.91;6059822;29;20615;-71
2023/09/27 08:24:19;;;;;;;7.70;6.95;;;;;;;18.69;89.95;102103.72;6069076;29;20236;-71
2023/09/27 08:27:40;;;;;;;11.75;8.35;;;;;;;18.63;88.00;102107.09;6068341;29;20236;-71
2023/09/27 08:31:04;;;;;;;9.65;7.97;;;;;;;18.76;86.72;102110.28;6033227;29;20237;-72
2023/09/27 08:34:26;;;;;;;9.88;7.40;;;;;;;19.06;85.50;102112.56;6032534;29;20244;-69
2023/09/27 08:37:47;;;;;;;7.47;6.78;;;;;;;19.24;84.69;102111.63;6027346;29;20268;-68
2023/09/27 08:41:13;;;;;;;9.05;6.53;;;;;;;19.48;83.63;102104.47;6040909;29;20232;-69
2023/09/27 08:44:34;;;;;;;9.98;8.20;;;;;;;19.53;82.04;102103.94;6045226;29;20496;-68
2023/09/27 08:47:55;;;;;;;7.70;6.80;;;;;;;19.59;80.72;102106.00;6059001;29;20256;-71
2023/09/27 08:51:16;;;;;;;7.95;7.18;;;;;;;19.63;79.58;102093.75;6048129;29;20319;-71
2023/09/27 08:54:37;;;;;;;7.45;6.68;;;;;;;19.87;78.85;102085.59;6027661;29;20240;-71
2023/09/27 08:58:00;;;;;;;9.20;8.32;;;;;;;20.03;78.88;102073.81;6056574;29;20245;-71
2023/09/27 09:01:22;;;;;;;11.88;8.25;;;;;;;20.08;78.48;102063.22;6063385;29;20260;-71
2023/09/27 09:04:43;;;;;;;7.47;5.93;;;;;;;20.09;77.62;102060.31;6073683;29;20743;-71
2023/09/27 09:08:05;;;;;;;15.07;7.30;;;;;;;20.29;76.61;102048.06;6061318;29;20324;-71
2023/09/27 09:11:26;;;;;;;8.13;6.30;;;;;;;20.58;75.91;102042.06;6069694;29;20236;-71
2023/09/27 09:14:54;;;;;;;10.60;6.47;;;;;;;20.84;75.59;102036.38;6065700;29;20249;-71
2023/09/27 09:18:28;;;;;;;10.45;7.90;;;;;;;20.79;75.29;102020.44;6064040;29;20622;-69
2023/09/27 09:21:56;;;;;;;9.60;6.43;;;;;;;21.08;74.98;102012.50;6056997;29;20319;-70
2023/09/27 09:25:18;;;;;;;9.50;7.90;;;;;;;20.93;73.51;102007.88;6064583;29;20346;-70
2023/09/27 09:28:53;;;;;;;8.57;7.70;;;;;;;21.06;74.24;102006.34;6073231;29;20268;-71
2023/09/27 09:32:17;;;;;;;13.05;7.38;;;;;;;21.28;73.49;102008.31;6076570;29;20727;-71
2023/09/27 09:35:39;;;;;;;11.55;7.72;;;;;;;21.44;72.62;102008.22;6072727;29;20236;-72
2023/09/27 09:39:04;;;;;;;8.68;7.65;;;;;;;21.47;71.17;101999.63;6054838;29;20245;-71
2023/09/27 09:42:32;;;;;;;12.20;8.02;;;;;;;21.66;70.20;101994.72;6054337;29;20244;-71
2023/09/27 09:45:54;;;;;;;7.95;6.68;;;;;;;22.30;68.50;102005.25;6057884;29;20240;-73
2023/09/27 09:49:17;;;;;;;7.57;6.88;;;;;;;22.99;65.88;102015.94;6046388;29;20244;-70
2023/09/27 09:52:40;;;;;;;7.72;5.28;;;;;;;23.44;65.09;102012.16;6064275;29;20607;-69
2023/09/27 09:56:03;;;;;;;9.18;6.22;;;;;;;23.50;62.02;102013.28;6042386;29;20232;-69
2023/09/27 09:59:31;;;;;;;7.20;5.95;;;;;;;23.32;62.23;102010.06;6065498;29;20252;-68
2023/09/27 10:02:59;;;;;;;14.32;5.63;;;;;;;24.87;58.86;101998.13;6074584;29;20231;-68
2023/09/27 10:06:22;;;;;;;8.63;6.47;;;;;;;24.69;57.31;102003.28;6082364;29;20315;-69
2023/09/27 10:09:44;;;;;;;6.10;5.38;;;;;;;24.32;58.64;102014.66;6086383;29;20572;-68
2023/09/27 10:13:08;;;;;;;8.75;6.03;;;;;;;24.35;57.83;102022.50;6087818;29;20236;-69
2023/09/27 10:16:29;;;;;;;9.77;5.82;;;;;;;25.15;55.42;102026.56;6089866;29;20343;-69
2023/09/27 10:20:12;;;;;;;6.82;4.32;;;;;;;26.92;52.24;102030.66;6084984;29;20330;-69
2023/09/27 10:24:01;;;;;;;6.38;5.05;;;;;;;26.98;49.35;102017.00;6091565;29;20236;-69
2023/09/27 10:27:22;;;;;;;5.97;4.05;;;;;;;26.89;50.33;102024.66;6092834;29;20320;-69
2023/09/27 10:31:06;;;;;;;6.45;4.28;;;;;;;25.95;51.22;102029.44;6085522;29;20287;-68
2023/09/27 10:34:40;;;;;;;4.68;4.25;;;;;;;25.88;52.39;102036.03;6094499;29;20327;-68
2023/09/27 10:38:06;;;;;;;4.85;4.38;;;;;;;27.12;48.33;102035.31;6090361;29;20228;-68
2023/09/27 10:41:44;;;;;;;6.53;5.10;;;;;;;25.42;51.13;102043.28;6094971;29;20240;-68
2023/09/27 10:45:10;;;;;;;6.43;4.95;;;;;;;24.67;54.47;102040.38;6088548;29;20236;-68
2023/09/27 10:48:31;;;;;;;5.97;4.80;;;;;;;23.16;58.11;102055.13;6094704;29;20631;-68
2023/09/27 10:51:53;;;;;;;7.32;5.93;;;;;;;23.25;59.59;102039.38;6089839;29;20252;-68
2023/09/27 10:55:15;;;;;;;7.63;5.30;;;;;;;23.61;59.99;102037.56;6090186;29;20240;-69
2023/09/27 10:58:44;;;;;;;7.00;4.97;;;;;;;23.63;60.13;102033.59;6091969;29;20244;-68
2023/09/27 11:02:06;;;;;;;7.40;5.90;;;;;;;23.48;61.58;102031.88;6075297;29;20466;-68
2023/09/27 11:05:27;;;;;;;7.00;5.75;;;;;;;23.53;61.71;102035.75;6090171;29;20856;-69
2023/09/27 11:08:48;;;;;;;12.68;5.25;;;;;;;26.35;55.64;102022.09;6080500;29;20859;-69
2023/09/27 11:12:08;;;;;;;4.30;3.95;;;;;;;28.91;47.90;102000.56;6094286;29;20259;-69
2023/09/27 11:15:31;;;;;;;4.38;3.60;;;;;;;30.48;43.93;102004.03;6089920;29;20229;-70
2023/09/27 11:18:52;;;;;;;5.35;3.65;;;;;;;32.78;40.60;102002.75;6090055;29;20237;-69
2023/09/27 11:22:24;;;;;;;5.78;4.18;;;;;;;32.24;39.54;101999.59;6088138;29;20310;-69
2023/09/27 11:25:46;;;;;;;6.32;4.32;;;;;;;34.38;36.96;101991.94;6087433;29;20270;-70
2023/09/27 11:29:08;;;;;;;3.63;3.15;;;;;;;33.72;37.58;101993.19;6090280;29;20236;-69
2023/09/27 11:32:50;;;;;;;3.33;2.83;;;;;;;34.09;37.05;101982.97;6091552;29;20240;-69
2023/09/27 11:36:11;;;;;;;3.65;2.97;;;;;;;35.57;34.20;101981.81;6092058;29;20232;-69
2023/09/27 11:39:47;;;;;;;3.70;3.35;;;;;;;36.21;33.27;101981.41;6086350;29;20241;-69
2023/09/27 11:43:09;;;;;;;4.50;3.42;;;;;;;34.93;34.80;101971.91;6090022;29;20236;-70
2023/09/27 11:46:31;;;;;;;4.55;3.15;;;;;;;35.70;33.45;101960.78;6087250;29;20237;-70
2023/09/27 11:49:53;;;;;;;5.05;3.38;;;;;;;34.99;34.45;101965.22;6094149;29;20240;-70
2023/09/27 11:53:14;;;;;;;3.67;3.15;;;;;;;35.45;33.87;101971.91;6081045;29;20251;-70
2023/09/27 11:56:36;;;;;;;4.40;3.45;;;;;;;34.32;35.76;101970.56;6066543;29;20233;-70
2023/09/27 11:59:57;;;;;;;4.75;3.35;;;;;;;34.17;35.67;101956.47;6075256;29;20263;-70
2023/09/27 12:03:18;;;;;;;4.45;2.92;;;;;;;32.68;37.60;101950.34;6086748;29;20240;-70
2023/09/27 12:06:40;;;;;;;3.95;3.28;;;;;;;27.42;45.46;101965.34;6086580;29;20607;-69
2023/09/27 12:10:02;;;;;;;3.58;2.90;;;;;;;31.18;40.82;101948.31;6082432;29;20237;-69
2023/09/27 12:13:22;;;;;;;3.80;3.50;;;;;;;32.99;37.77;101946.06;6088030;29;20686;-69
2023/09/27 12:16:43;;;;;;;4.95;3.42;;;;;;;33.56;36.50;101946.56;6081366;29;20221;-70
2023/09/27 12:20:06;;;;;;;3.10;2.60;;;;;;;31.60;40.13;101946.16;6082310;29;20260;-70
2023/09/27 12:23:28;;;;;;;3.65;2.90;;;;;;;31.33;39.57;101938.31;6091529;29;20236;-70
2023/09/27 12:26:49;;;;;;;3.35;3.00;;;;;;;34.39;36.89;101940.38;6091421;29;20232;-70
2023/09/27 12:30:11;;;;;;;3.40;2.40;;;;;;;35.35;33.59;101937.09;6089764;29;20495;-70
2023/09/27 12:33:32;;;;;;;5.75;3.30;;;;;;;35.65;32.30;101933.56;6091845;29;20236;-70
2023/09/27 12:36:53;;;;;;;3.33;3.03;;;;;;;38.34;30.57;101937.03;6085817;29;20811;-70
2023/09/27 12:40:15;;;;;;;5.57;3.15;;;;;;;37.58;31.53;101933.91;6077884;29;20736;-70
2023/09/27 12:43:36;;;;;;;3.40;3.10;;;;;;;36.08;32.94;101935.91;6087886;29;20228;-70
2023/09/27 12:46:57;;;;;;;6.20;3.78;;;;;;;34.11;34.86;101933.16;6080652;29;20240;-69
2023/09/27 12:50:23;;;;;;;4.22;3.80;;;;;;;35.09;34.02;101926.88;6083473;29;20244;-70
2023/09/27 12:53:45;;;;;;;4.60;3.33;;;;;;;33.87;34.80;101914.13;6078357;29;20232;-69
2023/09/27 12:57:08;;;;;;;3.42;2.72;;;;;;;33.97;37.01;101906.69;6082190;29;20233;-69
2023/09/27 13:00:29;;;;;;;3.28;2.92;;;;;;;36.53;33.48;101911.75;6082051;29;20245;-69
2023/09/27 13:03:50;;;;;;;3.30;2.90;;;;;;;37.16;32.23;101904.53;6080026;29;20248;-69
2023/09/27 13:07:11;;;;;;;3.50;3.20;;;;;;;33.82;35.97;101907.38;6087228;29;20267;-69
2023/09/27 13:10:34;;;;;;;5.78;3.45;;;;;;;30.25;41.23;101908.50;6086428;29;20220;-68
2023/09/27 13:13:56;;;;;;;4.45;3.03;;;;;;;28.73;44.45;101903.34;6070925;29;21006;-69
2023/09/27 13:17:17;;;;;;;3.17;2.17;;;;;;;28.41;46.53;101902.56;6087531;29;20240;-70
2023/09/27 13:20:38;;;;;;;4.70;2.83;;;;;;;28.68;46.45;101911.53;6083600;29;20269;-70
2023/09/27 13:23:59;;;;;;;3.45;2.33;;;;;;;27.87;48.25;101888.50;6084688;29;20232;-70
2023/09/27 13:27:20;;;;;;;3.15;2.70;;;;;;;27.36;49.54;101883.09;6085698;29;20252;-71
2023/09/27 13:30:43;;;;;;;6.53;3.05;;;;;;;27.27;49.02;101889.06;6085480;29;20556;-69
2023/09/27 13:34:04;;;;;;;3.13;2.75;;;;;;;27.10;49.87;101887.91;6057945;29;20232;-70
2023/09/27 13:37:25;;;;;;;4.10;3.10;;;;;;;27.44;48.75;101868.13;6086194;29;20225;-70
2023/09/27 13:40:46;;;;;;;4.22;3.55;;;;;;;27.79;48.42;101868.56;6079114;29;20673;-70
2023/09/27 13:44:07;;;;;;;7.55;3.33;;;;;;;29.69;43.82;101870.84;6079957;29;20229;-70
2023/09/27 13:47:29;;;;;;;4.20;2.92;;;;;;;31.00;40.97;101859.31;6087313;29;20240;-69
2023/09/27 13:50:50;;;;;;;3.85;2.92;;;;;;;32.12;39.93;101852.81;6078274;29;20232;-70
2023/09/27 13:54:11;;;;;;;5.10;3.88;;;;;;;30.75;41.19;101848.44;6087507;29;20236;-70
2023/09/27 13:57:32;;;;;;;6.07;5.45;;;;;;;28.85;45.28;101850.66;6083838;29;20244;-69
2023/09/27 14:00:54;;;;;;;3.55;2.72;;;;;;;27.60;48.17;101834.34;6082995;29;20240;-70
2023/09/27 14:04:16;;;;;;;6.45;2.85;;;;;;;26.40;49.18;101831.47;6083777;29;20334;-70
2023/09/27 14:07:38;;;;;;;4.32;3.35;;;;;;;27.03;48.09;101831.69;6082678;29;20666;-68
2023/09/27 14:10:59;;;;;;;4.05;3.10;;;;;;;27.26;48.45;101832.00;6081149;29;20248;-69
2023/09/27 14:14:20;;;;;;;4.93;3.25;;;;;;;27.25;49.02;101821.97;6081503;29;20232;-70
2023/09/27 14:17:41;;;;;;;6.07;3.25;;;;;;;28.96;46.38;101816.53;6079218;29;20236;-69
2023/09/27 14:21:03;;;;;;;4.28;3.53;;;;;;;30.78;42.74;101817.31;6083180;29;20248;-71
2023/09/27 14:24:26;;;;;;;3.03;2.72;;;;;;;30.17;42.93;101820.63;6078364;29;20509;-70
2023/09/27 14:27:47;;;;;;;5.38;2.60;;;;;;;28.19;45.30;101815.28;6081262;29;20224;-70
2023/09/27 14:31:08;;;;;;;3.67;2.63;;;;;;;26.67;46.69;101821.19;6083293;29;20236;-70
2023/09/27 14:34:29;;;;;;;3.80;3.40;;;;;;;26.32;48.07;101817.03;6084234;29;20331;-69
2023/09/27 14:37:51;;;;;;;2.25;2.08;;;;;;;26.31;48.50;101809.78;6085932;29;20836;-70
2023/09/27 14:41:12;;;;;;;3.05;2.72;;;;;;;25.69;50.85;101813.88;6085058;29;20236;-70
2023/09/27 14:44:32;;;;;;;3.95;2.80;;;;;;;25.84;51.43;101805.38;6086411;29;20232;-71
2023/09/27 14:47:53;;;;;;;4.22;3.60;;;;;;;26.27;49.69;101803.84;6089484;29;20240;-70
2023/09/27 14:51:15;;;;;;;2.88;2.58;;;;;;;26.85;49.08;101793.66;6090025;29;20716;-70
2023/09/27 14:54:38;;;;;;;3.35;3.05;;;;;;;27.60;48.43;101787.22;6086610;29;20517;-70
2023/09/27 14:57:59;;;;;;;3.30;2.53;;;;;;;26.59;48.21;101780.78;6091949;29;20229;-70
2023/09/27 15:01:20;;;;;;;5.43;2.33;;;;;;;26.01;49.58;101781.75;6085962;29;20631;-70
2023/09/27 15:04:41;;;;;;;5.82;2.58;;;;;;;26.12;49.99;101784.75;6084618;29;20747;-70
2023/09/27 15:08:02;;;;;;;2.17;2.05;;;;;;;25.93;49.45;101782.81;6087984;29;20236;-69
2023/09/27 15:11:25;;;;;;;2.25;2.05;;;;;;;25.81;49.65;101790.06;6086067;29;20255;-70
2023/09/27 15:14:46;;;;;;;2.95;2.67;;;;;;;25.81;49.58;101797.50;6084490;29;20233;-69
2023/09/27 15:18:07;;;;;;;5.28;2.78;;;;;;;26.01;49.87;101784.53;6089717;29;20351;-69
2023/09/27 15:21:28;;;;;;;2.65;2.45;;;;;;;26.47;49.65;101784.44;6085950;29;20240;-70
2023/09/27 15:24:49;;;;;;;4.22;2.83;;;;;;;25.98;49.57;101784.94;6095205;29;20611;-69
2023/09/27 15:28:11;;;;;;;2.92;2.15;;;;;;;25.87;49.82;101783.69;6088644;29;20797;-69
2023/09/27 15:31:32;;;;;;;3.20;2.70;;;;;;;25.93;50.85;101784.75;6091288;29;20228;-70
2023/09/27 15:34:53;;;;;;;3.15;2.22;;;;;;;25.71;50.53;101786.03;6090868;29;20857;-70